Airport

Available data for KAFO from the past hour
Metar
KAFO 260435Z AUTO 34004KT 10SM SCT070 BKN100 07/03 A2997 RMK AO2

04:35 UTC

Wind: 340° 4kt

Visibility: 10 SM

Sky: SCT 7000 ft

Temp: 7 deg C / 44.6 deg F

Dewpoint: 3 deg C / 37.4 deg F

Pressure: 29.97 inHg

Elevation: 6221
Runways: 16 / 36
Runway Length: 7025′ x 75′
Airport Facility Directory:  KAFO

IMG_0093

 

Click the links below:

Sectional Chart a

Sectional Chart b

Airport Facility Directory:

KAFO

Approach Charts:

RNAV (GPS) 16

RNAV (GPS) 34

Departure Procedures:

AFTON TWO (RNAV OBSTACLE)

LUNDI TWO (RNAV OBSTACLE)

IMG_0093

IMG_2859 (1)